createdAt,value
2023-01-29T00:02:21.647Z,7.20
2023-01-29T00:04:48.052Z,8.13
2023-01-29T00:07:14.532Z,9.95
2023-01-29T00:09:40.823Z,9.23
2023-01-29T00:12:07.731Z,9.13
2023-01-29T00:14:34.228Z,11.07
2023-01-29T00:17:01.256Z,7.55
2023-01-29T00:19:27.830Z,8.52
2023-01-29T00:21:54.149Z,8.40
2023-01-29T00:24:20.564Z,11.30
2023-01-29T00:26:47.034Z,8.38
2023-01-29T00:29:13.361Z,9.63
2023-01-29T00:31:39.763Z,13.57
2023-01-29T00:34:06.079Z,7.03
2023-01-29T00:36:32.452Z,7.80
2023-01-29T00:39:00.688Z,7.38
2023-01-29T00:41:29.417Z,8.75
2023-01-29T00:43:56.139Z,8.05
2023-01-29T00:46:22.511Z,8.18
2023-01-29T00:48:48.811Z,9.18
2023-01-29T00:51:15.098Z,10.85
2023-01-29T00:53:41.372Z,9.00
2023-01-29T00:56:07.654Z,7.50
2023-01-29T00:58:33.965Z,9.57
2023-01-29T01:01:03.012Z,10.40
2023-01-29T01:03:30.001Z,8.85
2023-01-29T01:06:03.924Z,8.85
2023-01-29T01:08:30.217Z,6.45
2023-01-29T01:11:01.923Z,7.63
2023-01-29T01:13:28.975Z,9.98
2023-01-29T01:15:55.274Z,9.80
2023-01-29T01:18:21.583Z,7.88
2023-01-29T01:20:48.181Z,8.55
2023-01-29T01:23:14.454Z,11.10
2023-01-29T01:25:41.126Z,7.55
2023-01-29T01:28:08.581Z,10.52
2023-01-29T01:30:34.860Z,8.20
2023-01-29T01:33:01.140Z,9.95
2023-01-29T01:35:27.629Z,9.38
2023-01-29T01:37:54.005Z,9.18
2023-01-29T01:40:22.177Z,7.60
2023-01-29T01:42:50.629Z,7.47
2023-01-29T01:45:35.654Z,7.07
2023-01-29T01:48:22.316Z,8.68
2023-01-29T01:50:51.514Z,7.72
2023-01-29T01:53:24.357Z,10.05
2023-01-29T01:55:56.011Z,7.75
2023-01-29T01:58:31.610Z,6.72
2023-01-29T02:00:59.014Z,11.82
2023-01-29T02:03:27.831Z,7.63
2023-01-29T02:05:57.154Z,8.05
2023-01-29T02:08:34.761Z,7.53
2023-01-29T02:11:01.301Z,8.13
2023-01-29T02:13:27.641Z,8.27
2023-01-29T02:15:53.920Z,10.15
2023-01-29T02:18:21.520Z,9.73
2023-01-29T02:21:18.781Z,8.13
2023-01-29T02:24:11.410Z,8.77
2023-01-29T02:27:07.098Z,9.13
2023-01-29T02:29:44.357Z,7.18
2023-01-29T02:32:39.070Z,7.00
2023-01-29T02:35:45.124Z,8.00
2023-01-29T02:38:24.949Z,7.47
2023-01-29T02:41:06.246Z,6.00
2023-01-29T02:43:55.742Z,8.73
2023-01-29T02:46:46.412Z,7.88
2023-01-29T02:49:30.731Z,7.38
2023-01-29T02:52:11.859Z,7.75
2023-01-29T02:54:46.746Z,6.18
2023-01-29T02:57:35.090Z,7.90
2023-01-29T03:00:27.739Z,5.90
2023-01-29T03:03:06.876Z,7.45
2023-01-29T03:05:58.467Z,6.60
2023-01-29T03:08:32.693Z,9.27
2023-01-29T03:11:03.670Z,7.38
2023-01-29T03:14:06.327Z,8.60
2023-01-29T03:16:41.858Z,9.98
2023-01-29T03:19:28.342Z,7.03
2023-01-29T03:21:58.043Z,5.78
2023-01-29T03:24:42.382Z,9.52
2023-01-29T03:27:12.779Z,7.97
2023-01-29T03:29:42.279Z,8.10
2023-01-29T03:32:10.301Z,6.78
2023-01-29T03:37:29.329Z,9.32
2023-01-29T03:39:55.911Z,7.35
2023-01-29T03:42:28.723Z,7.30
2023-01-29T03:45:04.067Z,8.95
2023-01-29T03:47:50.357Z,8.10
2023-01-29T03:50:47.780Z,7.45
2023-01-29T03:53:24.736Z,8.27
2023-01-29T03:56:08.927Z,8.98
2023-01-29T03:58:44.555Z,9.05
2023-01-29T04:01:20.454Z,9.10
2023-01-29T04:03:58.474Z,10.55
2023-01-29T04:06:29.818Z,10.40
2023-01-29T04:09:12.256Z,7.25
2023-01-29T04:11:44.999Z,8.55
2023-01-29T04:14:12.270Z,9.07
2023-01-29T04:16:41.864Z,9.52
2023-01-29T04:19:08.247Z,8.68
2023-01-29T04:21:35.446Z,8.52
2023-01-29T04:24:01.791Z,9.45
2023-01-29T04:26:28.039Z,10.07
2023-01-29T04:29:18.269Z,10.73
2023-01-29T04:32:13.504Z,7.57
2023-01-29T04:35:17.384Z,8.93
2023-01-29T04:38:11.853Z,8.50
2023-01-29T04:41:05.215Z,7.40
2023-01-29T04:43:56.200Z,8.73
2023-01-29T04:46:56.396Z,8.07
2023-01-29T04:49:39.199Z,6.78
2023-01-29T04:52:14.243Z,8.38
2023-01-29T04:54:43.160Z,10.45
2023-01-29T04:57:17.957Z,9.02
2023-01-29T04:59:55.658Z,10.77
2023-01-29T05:02:24.547Z,9.43
2023-01-29T05:04:52.649Z,9.57
2023-01-29T05:07:20.575Z,11.13
2023-01-29T05:12:17.298Z,7.85
2023-01-29T05:14:45.795Z,8.63
2023-01-29T05:17:18.679Z,6.75
2023-01-29T05:19:46.477Z,8.15
2023-01-29T05:22:16.737Z,8.15
2023-01-29T05:24:43.196Z,9.40
2023-01-29T05:27:17.307Z,9.35
2023-01-29T05:32:12.495Z,7.28
2023-01-29T05:34:38.779Z,11.13
2023-01-29T05:37:05.242Z,7.63
2023-01-29T05:39:31.525Z,7.10
2023-01-29T05:41:57.816Z,10.07
2023-01-29T05:44:24.142Z,7.78
2023-01-29T05:46:50.933Z,6.88
2023-01-29T05:49:18.259Z,8.07
2023-01-29T05:51:44.594Z,10.57
2023-01-29T05:54:12.236Z,6.72
2023-01-29T05:56:39.305Z,8.98
2023-01-29T05:59:06.171Z,7.45
2023-01-29T06:01:32.678Z,8.43
2023-01-29T06:03:59.034Z,7.20
2023-01-29T06:06:25.365Z,6.75
2023-01-29T06:08:51.622Z,6.07
2023-01-29T06:11:18.092Z,8.30
2023-01-29T06:13:45.361Z,8.60
2023-01-29T06:16:13.110Z,6.93
2023-01-29T06:18:40.651Z,6.28
2023-01-29T06:21:10.046Z,6.60
2023-01-29T06:23:36.939Z,7.47
2023-01-29T06:26:06.323Z,6.40
2023-01-29T06:28:33.157Z,8.52
2023-01-29T06:31:19.993Z,6.88
2023-01-29T06:33:48.184Z,8.32
2023-01-29T06:36:14.555Z,8.50
2023-01-29T06:38:40.912Z,10.25
2023-01-29T06:41:12.006Z,7.68
2023-01-29T06:43:39.188Z,5.82
2023-01-29T06:46:08.157Z,8.13
2023-01-29T06:48:34.803Z,7.22
2023-01-29T06:51:05.965Z,6.70
2023-01-29T06:53:33.896Z,9.27
2023-01-29T07:03:19.381Z,8.30
2023-01-29T07:05:52.570Z,10.10
2023-01-29T07:08:19.343Z,9.15
2023-01-29T07:10:45.610Z,7.38
2023-01-29T07:13:11.878Z,7.55
2023-01-29T07:15:38.350Z,7.88
2023-01-29T07:18:04.691Z,7.40
2023-01-29T07:20:31.294Z,7.63
2023-01-29T07:22:58.175Z,7.45
2023-01-29T07:25:25.610Z,11.35
2023-01-29T07:27:52.021Z,8.57
2023-01-29T07:30:18.782Z,6.95
2023-01-29T07:32:45.303Z,10.13
2023-01-29T07:35:11.669Z,7.72
2023-01-29T07:37:37.945Z,8.93
2023-01-29T07:40:04.930Z,7.50
2023-01-29T07:42:31.244Z,9.65
2023-01-29T07:44:57.616Z,7.78
2023-01-29T07:47:23.938Z,7.75
2023-01-29T07:49:50.190Z,9.15
2023-01-29T07:52:16.506Z,8.93
2023-01-29T07:54:42.825Z,9.88
2023-01-29T07:57:09.154Z,7.72
2023-01-29T07:59:35.412Z,8.23
2023-01-29T08:02:01.785Z,9.15
2023-01-29T08:04:28.182Z,8.60
2023-01-29T08:06:54.455Z,8.13
2023-01-29T08:09:20.748Z,8.43
2023-01-29T08:11:47.091Z,8.23
2023-01-29T08:14:13.441Z,8.07
2023-01-29T08:16:39.701Z,11.23
2023-01-29T08:19:06.024Z,10.05
2023-01-29T08:21:32.311Z,9.98
2023-01-29T08:23:58.780Z,9.07
2023-01-29T08:26:25.103Z,9.15
2023-01-29T08:28:51.511Z,8.60
2023-01-29T08:31:18.952Z,11.65
2023-01-29T08:33:45.277Z,7.53
2023-01-29T08:36:11.708Z,10.93
2023-01-29T08:38:38.327Z,11.80
2023-01-29T08:41:04.881Z,8.95
2023-01-29T08:43:31.182Z,12.63
2023-01-29T08:45:57.616Z,10.55
2023-01-29T08:48:23.907Z,9.82
2023-01-29T08:50:50.167Z,12.57
2023-01-29T08:53:16.583Z,8.23
2023-01-29T08:55:42.865Z,9.98
2023-01-29T08:58:11.259Z,10.75
2023-01-29T09:00:38.081Z,9.95
2023-01-29T09:03:04.693Z,9.45
2023-01-29T09:05:31.006Z,12.75
2023-01-29T09:07:57.459Z,9.85
2023-01-29T09:10:23.762Z,10.38
2023-01-29T09:12:50.066Z,8.77
2023-01-29T09:15:16.792Z,11.95
2023-01-29T09:17:43.214Z,11.45
2023-01-29T09:20:10.457Z,8.35
2023-01-29T09:22:36.805Z,10.02
2023-01-29T09:25:04.113Z,9.00
2023-01-29T09:27:30.552Z,8.93
2023-01-29T09:29:56.851Z,10.32
2023-01-29T09:32:49.690Z,7.95
2023-01-29T09:35:09.783Z,10.85
2023-01-29T09:37:36.047Z,11.27
2023-01-29T09:40:02.365Z,11.68
2023-01-29T09:42:37.972Z,12.38
2023-01-29T09:45:23.047Z,9.63
2023-01-29T09:47:49.354Z,10.07
2023-01-29T09:50:42.310Z,10.90
2023-01-29T09:53:28.844Z,13.25
2023-01-29T09:56:11.144Z,8.02
2023-01-29T09:58:40.897Z,11.52
2023-01-29T10:01:17.552Z,12.73
2023-01-29T10:04:07.747Z,14.00
2023-01-29T10:07:16.788Z,13.30
2023-01-29T10:10:00.850Z,10.00
2023-01-29T10:12:53.427Z,9.40
2023-01-29T10:15:28.810Z,9.27
2023-01-29T10:18:16.942Z,11.88
2023-01-29T10:21:19.524Z,9.70
2023-01-29T10:24:00.581Z,11.77
2023-01-29T10:26:28.650Z,8.80
2023-01-29T10:28:58.528Z,9.85
2023-01-29T10:31:30.712Z,12.80
2023-01-29T10:34:07.211Z,10.15
2023-01-29T10:36:43.252Z,12.43
2023-01-29T10:39:16.451Z,10.30
2023-01-29T10:42:04.013Z,10.93
2023-01-29T10:45:00.364Z,11.52
2023-01-29T10:48:09.473Z,10.48
2023-01-29T10:50:52.121Z,9.68
2023-01-29T10:53:24.658Z,12.90
2023-01-29T10:56:22.647Z,11.75
2023-01-29T10:58:53.568Z,12.60
2023-01-29T11:01:19.905Z,10.07
2023-01-29T11:03:54.886Z,9.75
2023-01-29T11:06:24.739Z,11.30
2023-01-29T11:09:09.880Z,10.23
2023-01-29T11:12:01.138Z,11.32
2023-01-29T11:14:32.832Z,9.10
2023-01-29T11:16:59.297Z,9.52
2023-01-29T11:19:40.827Z,10.90
2023-01-29T11:22:14.825Z,10.23
2023-01-29T11:27:25.711Z,11.82
2023-01-29T11:29:53.466Z,10.20
2023-01-29T11:32:22.806Z,10.50
2023-01-29T11:34:58.146Z,9.68
2023-01-29T11:37:32.616Z,9.38
2023-01-29T11:39:59.004Z,12.77
2023-01-29T11:42:31.492Z,11.10
2023-01-29T11:44:57.791Z,10.20
2023-01-29T11:47:29.437Z,10.98
2023-01-29T11:49:58.117Z,11.15
2023-01-29T11:52:33.938Z,10.20
2023-01-29T11:55:07.403Z,13.85
2023-01-29T11:57:38.277Z,10.40
2023-01-29T12:00:07.824Z,8.02
2023-01-29T12:02:43.202Z,10.60
2023-01-29T12:05:18.269Z,10.75
2023-01-29T12:07:48.425Z,15.48
2023-01-29T12:10:33.365Z,11.60
2023-01-29T12:13:10.072Z,10.00
2023-01-29T12:15:40.968Z,9.40
2023-01-29T12:18:29.066Z,9.93
2023-01-29T12:21:05.377Z,10.13
2023-01-29T12:23:41.035Z,10.93
2023-01-29T12:26:16.251Z,12.15
2023-01-29T12:29:07.041Z,8.43
2023-01-29T12:32:05.360Z,8.98
2023-01-29T12:37:20.947Z,10.40
2023-01-29T12:39:49.398Z,10.48
2023-01-29T12:42:19.811Z,10.38
2023-01-29T12:45:01.471Z,6.70
2023-01-29T12:47:42.574Z,7.93
2023-01-29T12:50:24.087Z,8.95
2023-01-29T12:52:56.594Z,7.70
2023-01-29T12:55:27.803Z,8.70
2023-01-29T12:57:59.795Z,9.52
2023-01-29T13:00:29.743Z,8.98
2023-01-29T13:03:20.875Z,8.60
2023-01-29T13:05:52.126Z,6.72
2023-01-29T13:08:32.463Z,8.27
2023-01-29T13:11:02.773Z,7.25
2023-01-29T13:13:54.113Z,7.40
2023-01-29T13:16:25.916Z,9.18
2023-01-29T13:19:02.450Z,10.15
2023-01-29T13:21:37.074Z,7.20
2023-01-29T13:24:09.893Z,6.28
2023-01-29T13:26:37.292Z,6.90
2023-01-29T13:29:04.053Z,7.25
2023-01-29T13:31:39.700Z,8.10
2023-01-29T13:34:20.852Z,7.63
2023-01-29T13:36:57.224Z,8.25
2023-01-29T13:39:35.196Z,7.88
2023-01-29T13:42:14.324Z,9.15
2023-01-29T13:44:40.932Z,8.43
2023-01-29T13:47:09.945Z,8.25
2023-01-29T13:49:43.095Z,7.13
2023-01-29T13:52:35.676Z,7.88
2023-01-29T13:55:32.886Z,9.30
2023-01-29T13:58:04.369Z,7.60
2023-01-29T14:00:33.812Z,7.97
2023-01-29T14:03:00.154Z,10.38
2023-01-29T14:05:29.459Z,8.57
2023-01-29T14:08:03.437Z,7.60
2023-01-29T14:13:03.089Z,7.75
2023-01-29T14:15:32.886Z,11.02
2023-01-29T14:18:08.423Z,8.73
2023-01-29T14:20:46.077Z,7.07
2023-01-29T14:23:39.803Z,9.00
2023-01-29T14:26:21.122Z,8.23
2023-01-29T14:29:01.198Z,8.32
2023-01-29T14:34:04.947Z,7.95
2023-01-29T14:36:40.278Z,8.18
2023-01-29T14:39:17.474Z,8.15
2023-01-29T14:41:43.848Z,6.80
2023-01-29T14:44:44.130Z,7.65
2023-01-29T14:47:19.249Z,7.78
2023-01-29T14:49:51.561Z,9.52
2023-01-29T14:52:22.739Z,11.20
2023-01-29T14:54:51.145Z,8.85
2023-01-29T14:57:18.095Z,9.48
2023-01-29T14:59:53.222Z,15.15
2023-01-29T15:02:24.297Z,12.45
2023-01-29T15:04:58.260Z,10.68
2023-01-29T15:10:23.084Z,6.70
2023-01-29T15:12:54.659Z,11.35
2023-01-29T15:15:36.312Z,9.02
2023-01-29T15:18:29.036Z,8.85
2023-01-29T15:21:04.914Z,8.77
2023-01-29T15:23:34.125Z,10.30
2023-01-29T15:26:03.482Z,10.38
2023-01-29T15:28:31.728Z,12.60
2023-01-29T15:31:01.012Z,9.63
2023-01-29T15:33:28.544Z,9.63
2023-01-29T15:36:06.954Z,9.55
2023-01-29T15:38:36.616Z,12.00
2023-01-29T15:41:16.339Z,13.27
2023-01-29T15:43:55.874Z,9.27
2023-01-29T15:46:26.876Z,11.65
2023-01-29T15:48:55.905Z,10.82
2023-01-29T15:51:27.155Z,12.05
2023-01-29T15:54:03.483Z,10.80
2023-01-29T15:56:50.177Z,11.93
2023-01-29T15:59:22.374Z,11.70
2023-01-29T16:01:48.830Z,11.02
2023-01-29T16:04:20.560Z,12.18
2023-01-29T16:06:47.887Z,10.05
2023-01-29T16:09:25.853Z,9.95
2023-01-29T16:11:54.318Z,12.30
2023-01-29T16:14:24.275Z,13.98
2023-01-29T16:16:51.957Z,12.45
2023-01-29T16:19:27.611Z,15.07
2023-01-29T16:22:01.322Z,15.20
2023-01-29T16:24:29.258Z,14.15
2023-01-29T16:29:34.564Z,14.40
2023-01-29T16:32:02.317Z,15.73
2023-01-29T16:34:38.525Z,15.90
2023-01-29T16:37:16.094Z,12.43
2023-01-29T16:39:47.286Z,16.52
2023-01-29T16:42:13.584Z,15.38
2023-01-29T16:44:45.439Z,20.02
2023-01-29T16:47:14.413Z,17.00
2023-01-29T16:49:45.783Z,18.83
2023-01-29T16:52:23.878Z,18.50
2023-01-29T16:54:50.415Z,18.02
2023-01-29T16:57:24.574Z,19.70
2023-01-29T16:59:55.289Z,26.13
2023-01-29T17:02:31.399Z,25.55
2023-01-29T17:05:01.697Z,25.90
2023-01-29T17:07:28.905Z,24.48
2023-01-29T17:09:59.656Z,26.73
2023-01-29T17:12:28.399Z,23.58
2023-01-29T17:15:01.916Z,27.13
2023-01-29T17:17:33.968Z,21.83
2023-01-29T17:20:12.229Z,25.40
2023-01-29T17:22:38.606Z,28.27
2023-01-29T17:25:05.364Z,22.08
2023-01-29T17:27:31.881Z,22.42
2023-01-29T17:29:58.622Z,25.20
2023-01-29T17:32:25.338Z,33.15
2023-01-29T17:35:15.126Z,29.95
2023-01-29T17:37:41.888Z,28.13
2023-01-29T17:40:29.753Z,30.35
2023-01-29T17:42:56.017Z,33.03
2023-01-29T17:45:22.305Z,35.47
2023-01-29T17:47:48.600Z,30.23
2023-01-29T17:50:22.489Z,35.40
2023-01-29T17:52:49.718Z,39.75
2023-01-29T17:55:16.796Z,43.85
2023-01-29T17:57:43.356Z,43.70
2023-01-29T18:00:13.701Z,38.30
2023-01-29T18:02:40.011Z,37.10
2023-01-29T18:05:06.631Z,37.20
2023-01-29T18:07:32.971Z,36.17
2023-01-29T18:09:59.247Z,43.60
2023-01-29T18:12:25.740Z,43.50
2023-01-29T18:14:52.021Z,49.17
2023-01-29T18:17:18.733Z,39.35
2023-01-29T18:19:45.060Z,42.15
2023-01-29T18:22:11.366Z,37.95
2023-01-29T18:24:37.682Z,33.60
2023-01-29T18:27:04.085Z,29.88
2023-01-29T18:29:30.447Z,35.05
2023-01-29T18:31:56.843Z,30.65
2023-01-29T18:34:23.218Z,33.72
2023-01-29T18:36:49.635Z,29.15
2023-01-29T18:39:16.476Z,28.25
2023-01-29T18:41:42.971Z,34.05
2023-01-29T18:44:10.570Z,31.45
2023-01-29T18:46:36.922Z,31.27
2023-01-29T18:49:03.372Z,34.35
2023-01-29T18:51:29.694Z,34.03
2023-01-29T18:53:56.070Z,35.30
2023-01-29T18:56:22.418Z,34.25
2023-01-29T18:58:52.380Z,31.30
2023-01-29T19:01:22.138Z,33.67
2023-01-29T19:03:48.506Z,29.17
2023-01-29T19:06:14.864Z,25.25
2023-01-29T19:08:41.477Z,37.65
2023-01-29T19:11:07.775Z,35.78
2023-01-29T19:13:36.337Z,40.03
2023-01-29T19:16:06.424Z,46.42
2023-01-29T19:18:32.694Z,41.78
2023-01-29T19:20:58.997Z,39.33
2023-01-29T19:23:25.545Z,38.80
2023-01-29T19:25:51.876Z,45.70
2023-01-29T19:28:18.171Z,37.25
2023-01-29T19:30:44.575Z,45.92
2023-01-29T19:33:11.053Z,48.72
2023-01-29T19:35:37.490Z,46.17
2023-01-29T19:38:04.561Z,41.63
2023-01-29T19:40:30.881Z,48.72
2023-01-29T19:42:57.439Z,46.03
2023-01-29T19:45:48.891Z,55.40
2023-01-29T19:50:36.719Z,36.60
2023-01-29T19:53:03.154Z,41.83
2023-01-29T19:55:29.444Z,37.88
2023-01-29T19:57:55.760Z,36.13
2023-01-29T20:00:22.221Z,39.80
2023-01-29T20:02:48.513Z,44.97
2023-01-29T20:05:15.552Z,43.83
2023-01-29T20:07:42.474Z,42.00
2023-01-29T20:10:10.330Z,40.22
2023-01-29T20:12:37.951Z,40.00
2023-01-29T20:15:04.652Z,36.25
2023-01-29T20:17:30.935Z,32.92
2023-01-29T20:19:57.248Z,42.78
2023-01-29T20:22:23.535Z,46.22
2023-01-29T20:24:49.838Z,47.22
2023-01-29T20:27:16.180Z,41.20
2023-01-29T20:29:42.476Z,43.45
2023-01-29T20:32:08.824Z,40.05
2023-01-29T20:34:35.544Z,36.53
2023-01-29T20:37:02.021Z,37.20
2023-01-29T20:39:28.465Z,39.90
2023-01-29T20:41:54.820Z,32.92
2023-01-29T20:44:21.243Z,40.08
2023-01-29T20:46:47.524Z,39.28
2023-01-29T20:49:13.839Z,35.08
2023-01-29T20:51:40.186Z,33.67
2023-01-29T20:54:06.547Z,36.55
2023-01-29T20:56:36.058Z,34.17
2023-01-29T20:59:06.208Z,26.70
2023-01-29T21:01:32.728Z,27.27
2023-01-29T21:03:59.042Z,25.08
2023-01-29T21:06:25.371Z,29.02
2023-01-29T21:08:51.654Z,33.53
2023-01-29T21:11:18.101Z,27.13
2023-01-29T21:13:44.390Z,27.20
2023-01-29T21:16:10.783Z,33.90
2023-01-29T21:18:37.311Z,31.75
2023-01-29T21:21:03.852Z,31.65
2023-01-29T21:23:30.128Z,29.98
2023-01-29T21:26:04.104Z,30.70
2023-01-29T21:28:30.660Z,34.53
2023-01-29T21:31:05.297Z,36.22
2023-01-29T21:33:31.608Z,30.23
2023-01-29T21:36:01.914Z,31.52
2023-01-29T21:38:28.270Z,27.95
2023-01-29T21:41:03.256Z,25.40
2023-01-29T21:43:29.642Z,26.48
2023-01-29T21:45:58.231Z,30.95
2023-01-29T21:48:25.257Z,27.35
2023-01-29T21:50:52.413Z,28.35
2023-01-29T21:53:19.327Z,29.42
2023-01-29T21:55:46.265Z,27.98
2023-01-29T21:58:14.407Z,24.55
2023-01-29T22:00:41.014Z,28.58
2023-01-29T22:03:07.301Z,23.77
2023-01-29T22:05:33.991Z,34.15
2023-01-29T22:08:00.376Z,30.23
2023-01-29T22:10:26.867Z,27.15
2023-01-29T22:12:53.195Z,24.85
2023-01-29T22:15:20.323Z,26.58
2023-01-29T22:17:47.513Z,28.83
2023-01-29T22:20:14.628Z,28.40
2023-01-29T22:22:41.047Z,28.00
2023-01-29T22:25:08.178Z,24.45
2023-01-29T22:27:34.786Z,27.92
2023-01-29T22:30:01.264Z,28.92
2023-01-29T22:32:27.659Z,31.05
2023-01-29T22:34:53.993Z,24.13
2023-01-29T22:37:20.410Z,28.75
2023-01-29T22:39:46.740Z,30.80
2023-01-29T22:42:13.069Z,27.20
2023-01-29T22:44:39.424Z,30.30
2023-01-29T22:47:05.770Z,23.63
2023-01-29T22:49:32.093Z,30.98
2023-01-29T22:51:58.439Z,31.15
2023-01-29T22:54:24.736Z,29.15
2023-01-29T22:56:51.015Z,43.55
2023-01-29T22:59:17.318Z,27.30
2023-01-29T23:01:43.660Z,23.95
2023-01-29T23:04:10.061Z,23.58
2023-01-29T23:06:36.435Z,21.77
2023-01-29T23:09:02.786Z,24.05
2023-01-29T23:11:29.065Z,23.73
2023-01-29T23:13:55.350Z,19.08
2023-01-29T23:16:26.246Z,20.42
2023-01-29T23:18:55.151Z,18.80
2023-01-29T23:21:23.218Z,17.05
2023-01-29T23:23:49.682Z,17.40
2023-01-29T23:26:15.959Z,21.25
2023-01-29T23:28:42.966Z,20.25
2023-01-29T23:31:09.408Z,17.85
2023-01-29T23:33:35.754Z,18.83
2023-01-29T23:36:02.114Z,16.33
2023-01-29T23:38:28.396Z,19.95
2023-01-29T23:40:54.726Z,22.10
2023-01-29T23:43:21.102Z,22.35
2023-01-29T23:45:47.466Z,23.52
2023-01-29T23:48:13.741Z,22.55
2023-01-29T23:50:40.044Z,19.23
2023-01-29T23:53:06.319Z,19.63
2023-01-29T23:55:32.606Z,24.95
2023-01-29T23:57:58.976Z,16.95
